sensor_id;sensor_type;location;lat;lon;timestamp;pressure;altitude;pressure_sealevel;temperature;humidity
6038;BME280;3047;42.600;23.470;2022-07-11T00:02:04;93048.81;;;16.79;90.79
6038;BME280;3047;42.600;23.470;2022-07-11T00:04:32;93112.31;;;17.17;91.55
6038;BME280;3047;42.600;23.470;2022-07-11T00:07:00;93079.16;;;17.01;92.65
6038;BME280;3047;42.600;23.470;2022-07-11T00:09:27;93108.50;;;17.09;93.20
6038;BME280;3047;42.600;23.470;2022-07-11T00:11:54;93112.72;;;17.10;93.84
6038;BME280;3047;42.600;23.470;2022-07-11T00:14:21;93111.03;;;16.93;91.61
6038;BME280;3047;42.600;23.470;2022-07-11T00:16:48;93108.50;;;16.93;91.97
6038;BME280;3047;42.600;23.470;2022-07-11T00:19:16;93088.44;;;16.69;92.26
6038;BME280;3047;42.600;23.470;2022-07-11T00:21:43;93113.16;;;16.85;91.42
6038;BME280;3047;42.600;23.470;2022-07-11T00:24:10;93081.63;;;16.70;91.29
6038;BME280;3047;42.600;23.470;2022-07-11T00:26:37;93065.78;;;16.47;90.66
6038;BME280;3047;42.600;23.470;2022-07-11T00:29:04;93109.91;;;16.65;91.48
6038;BME280;3047;42.600;23.470;2022-07-11T00:31:32;93078.75;;;16.43;91.68
6038;BME280;3047;42.600;23.470;2022-07-11T00:33:59;93114.09;;;16.66;91.03
6038;BME280;3047;42.600;23.470;2022-07-11T00:36:28;93115.66;;;16.69;91.55
6038;BME280;3047;42.600;23.470;2022-07-11T00:38:54;93116.31;;;16.72;89.82
6038;BME280;3047;42.600;23.470;2022-07-11T00:41:21;93116.72;;;16.82;89.49
6038;BME280;3047;42.600;23.470;2022-07-11T00:43:51;93110.81;;;16.82;88.96
6038;BME280;3047;42.600;23.470;2022-07-11T00:46:20;93099.31;;;16.73;89.10
6038;BME280;3047;42.600;23.470;2022-07-11T00:48:46;93112.50;;;16.81;89.29
6038;BME280;3047;42.600;23.470;2022-07-11T00:51:13;93118.84;;;16.74;89.07
6038;BME280;3047;42.600;23.470;2022-07-11T00:53:42;93114.91;;;16.84;88.70
6038;BME280;3047;42.600;23.470;2022-07-11T00:56:09;93112.50;;;16.81;88.93
6038;BME280;3047;42.600;23.470;2022-07-11T00:58:37;93114.09;;;16.84;88.57
6038;BME280;3047;42.600;23.470;2022-07-11T01:01:04;93118.88;;;16.72;89.03
6038;BME280;3047;42.600;23.470;2022-07-11T01:03:34;93116.00;;;16.63;89.08
6038;BME280;3047;42.600;23.470;2022-07-11T01:06:01;93114.94;;;16.67;89.54
6038;BME280;3047;42.600;23.470;2022-07-11T01:08:28;93126.88;;;16.66;89.86
6038;BME280;3047;42.600;23.470;2022-07-11T01:11:00;93123.56;;;16.64;90.28
6038;BME280;3047;42.600;23.470;2022-07-11T01:13:27;93132.94;;;16.64;91.13
6038;BME280;3047;42.600;23.470;2022-07-11T01:16:06;93132.78;;;16.67;90.92
6038;BME280;3047;42.600;23.470;2022-07-11T01:18:33;93133.59;;;16.67;90.56
6038;BME280;3047;42.600;23.470;2022-07-11T01:21:01;93089.78;;;16.43;91.30
6038;BME280;3047;42.600;23.470;2022-07-11T01:23:29;93117.72;;;16.62;91.89
6038;BME280;3047;42.600;23.470;2022-07-11T01:25:57;93114.06;;;16.50;91.86
6038;BME280;3047;42.600;23.470;2022-07-11T01:28:24;93124.34;;;16.49;91.93
6038;BME280;3047;42.600;23.470;2022-07-11T01:30:50;93122.69;;;16.48;92.74
6038;BME280;3047;42.600;23.470;2022-07-11T01:33:17;93124.78;;;16.40;92.64
6038;BME280;3047;42.600;23.470;2022-07-11T01:35:44;93115.97;;;16.29;92.58
6038;BME280;3047;42.600;23.470;2022-07-11T01:38:10;93116.72;;;16.31;93.46
6038;BME280;3047;42.600;23.470;2022-07-11T01:40:38;93088.31;;;16.22;92.65
6038;BME280;3047;42.600;23.470;2022-07-11T01:43:05;93107.50;;;16.29;92.75
6038;BME280;3047;42.600;23.470;2022-07-11T01:45:32;93105.59;;;16.32;92.61
6038;BME280;3047;42.600;23.470;2022-07-11T01:47:58;93116.47;;;16.36;91.75
6038;BME280;3047;42.600;23.470;2022-07-11T01:50:25;93087.63;;;16.18;91.85
6038;BME280;3047;42.600;23.470;2022-07-11T01:52:52;93109.59;;;16.38;92.97
6038;BME280;3047;42.600;23.470;2022-07-11T01:55:18;93119.63;;;16.41;91.57
6038;BME280;3047;42.600;23.470;2022-07-11T01:57:47;93115.59;;;16.37;91.09
6038;BME280;3047;42.600;23.470;2022-07-11T02:00:13;93120.16;;;16.30;91.55
6038;BME280;3047;42.600;23.470;2022-07-11T02:02:40;93125.78;;;16.37;90.88
6038;BME280;3047;42.600;23.470;2022-07-11T02:05:07;93129.97;;;16.38;90.23
6038;BME280;3047;42.600;23.470;2022-07-11T02:07:34;93125.84;;;16.36;91.12
6038;BME280;3047;42.600;23.470;2022-07-11T02:10:18;93123.91;;;16.41;91.65
6038;BME280;3047;42.600;23.470;2022-07-11T02:12:45;93132.19;;;16.44;91.46
6038;BME280;3047;42.600;23.470;2022-07-11T02:15:13;93123.91;;;16.41;90.92
6038;BME280;3047;42.600;23.470;2022-07-11T02:17:39;93130.66;;;16.42;91.11
6038;BME280;3047;42.600;23.470;2022-07-11T02:20:07;93132.88;;;16.48;90.56
6038;BME280;3047;42.600;23.470;2022-07-11T02:22:34;93137.97;;;16.48;89.43
6038;BME280;3047;42.600;23.470;2022-07-11T02:25:01;93127.97;;;16.27;90.22
6038;BME280;3047;42.600;23.470;2022-07-11T02:27:28;93137.03;;;16.33;91.96
6038;BME280;3047;42.600;23.470;2022-07-11T02:29:54;93135.22;;;16.35;93.02
6038;BME280;3047;42.600;23.470;2022-07-11T02:32:22;93136.75;;;16.22;91.30
6038;BME280;3047;42.600;23.470;2022-07-11T02:34:49;93143.38;;;16.24;90.46
6038;BME280;3047;42.600;23.470;2022-07-11T02:37:16;93139.97;;;16.25;91.65
6038;BME280;3047;42.600;23.470;2022-07-11T02:39:44;93140.84;;;16.24;90.30
6038;BME280;3047;42.600;23.470;2022-07-11T02:42:11;93115.53;;;15.87;90.65
6038;BME280;3047;42.600;23.470;2022-07-11T02:44:38;93149.41;;;16.06;91.34
6038;BME280;3047;42.600;23.470;2022-07-11T02:47:05;93150.81;;;16.12;90.50
6038;BME280;3047;42.600;23.470;2022-07-11T02:49:33;93160.50;;;16.05;91.05
6038;BME280;3047;42.600;23.470;2022-07-11T02:52:00;93151.88;;;16.07;90.91
6038;BME280;3047;42.600;23.470;2022-07-11T02:54:26;93155.91;;;16.12;90.02
6038;BME280;3047;42.600;23.470;2022-07-11T02:56:54;93159.47;;;16.09;90.75
6038;BME280;3047;42.600;23.470;2022-07-11T02:59:20;93120.38;;;15.74;92.03
6038;BME280;3047;42.600;23.470;2022-07-11T03:01:47;93140.03;;;15.89;93.86
6038;BME280;3047;42.600;23.470;2022-07-11T03:04:14;93101.28;;;15.64;91.32
6038;BME280;3047;42.600;23.470;2022-07-11T03:06:42;93173.25;;;16.05;91.17
6038;BME280;3047;42.600;23.470;2022-07-11T03:09:10;93172.41;;;16.04;93.03
6038;BME280;3047;42.600;23.470;2022-07-11T03:11:37;93171.88;;;15.98;92.46
6038;BME280;3047;42.600;23.470;2022-07-11T03:14:04;93139.88;;;15.92;91.94
6038;BME280;3047;42.600;23.470;2022-07-11T03:16:31;93174.50;;;15.96;91.67
6038;BME280;3047;42.600;23.470;2022-07-11T03:18:58;93172.25;;;15.90;93.29
6038;BME280;3047;42.600;23.470;2022-07-11T03:21:25;93174.41;;;15.80;94.31
6038;BME280;3047;42.600;23.470;2022-07-11T03:23:53;93182.28;;;15.76;95.00
6038;BME280;3047;42.600;23.470;2022-07-11T03:26:19;93170.50;;;15.73;93.62
6038;BME280;3047;42.600;23.470;2022-07-11T03:28:46;93180.31;;;15.81;94.22
6038;BME280;3047;42.600;23.470;2022-07-11T03:31:13;93181.53;;;15.91;94.10
6038;BME280;3047;42.600;23.470;2022-07-11T03:33:40;93183.56;;;16.02;92.08
6038;BME280;3047;42.600;23.470;2022-07-11T03:36:06;93183.94;;;16.12;91.22
6038;BME280;3047;42.600;23.470;2022-07-11T03:38:33;93175.34;;;16.14;90.57
6038;BME280;3047;42.600;23.470;2022-07-11T03:41:01;93167.69;;;16.14;91.75
6038;BME280;3047;42.600;23.470;2022-07-11T03:43:28;93179.25;;;16.21;92.37
6038;BME280;3047;42.600;23.470;2022-07-11T03:45:55;93177.88;;;16.14;92.14
6038;BME280;3047;42.600;23.470;2022-07-11T03:48:22;93136.28;;;15.96;90.98
6038;BME280;3047;42.600;23.470;2022-07-11T03:50:48;93183.78;;;16.32;92.90
6038;BME280;3047;42.600;23.470;2022-07-11T03:53:15;93185.28;;;16.36;91.12
6038;BME280;3047;42.600;23.470;2022-07-11T03:55:42;93189.53;;;16.37;90.01
6038;BME280;3047;42.600;23.470;2022-07-11T03:58:10;93198.00;;;16.38;89.28
6038;BME280;3047;42.600;23.470;2022-07-11T04:00:37;93201.34;;;16.38;89.88
6038;BME280;3047;42.600;23.470;2022-07-11T04:03:04;93204.44;;;16.45;89.90
6038;BME280;3047;42.600;23.470;2022-07-11T04:05:31;93182.97;;;16.31;91.31
6038;BME280;3047;42.600;23.470;2022-07-11T04:07:57;93209.09;;;16.54;91.02
6038;BME280;3047;42.600;23.470;2022-07-11T04:10:24;93189.44;;;16.39;91.61
6038;BME280;3047;42.600;23.470;2022-07-11T04:12:51;93212.09;;;16.62;91.38
6038;BME280;3047;42.600;23.470;2022-07-11T04:15:19;93127.16;;;16.10;91.15
6038;BME280;3047;42.600;23.470;2022-07-11T04:17:46;93216.72;;;16.71;90.48
6038;BME280;3047;42.600;23.470;2022-07-11T04:20:13;93213.44;;;16.69;90.45
6038;BME280;3047;42.600;23.470;2022-07-11T04:22:39;93218.59;;;16.85;91.27
6038;BME280;3047;42.600;23.470;2022-07-11T04:25:07;93224.06;;;16.95;90.02
6038;BME280;3047;42.600;23.470;2022-07-11T04:27:34;93222.50;;;16.92;90.84
6038;BME280;3047;42.600;23.470;2022-07-11T04:30:00;93235.84;;;16.97;91.74
6038;BME280;3047;42.600;23.470;2022-07-11T04:32:29;93231.50;;;16.99;93.01
6038;BME280;3047;42.600;23.470;2022-07-11T04:34:55;93240.50;;;17.07;92.33
6038;BME280;3047;42.600;23.470;2022-07-11T04:37:22;93234.91;;;17.16;92.37
6038;BME280;3047;42.600;23.470;2022-07-11T04:39:51;93238.03;;;17.21;92.71
6038;BME280;3047;42.600;23.470;2022-07-11T04:42:18;93230.25;;;17.40;92.52
6038;BME280;3047;42.600;23.470;2022-07-11T04:44:45;93240.72;;;17.35;92.89
6038;BME280;3047;42.600;23.470;2022-07-11T04:47:11;93239.91;;;17.35;92.83
6038;BME280;3047;42.600;23.470;2022-07-11T04:49:39;93240.47;;;17.40;92.54
6038;BME280;3047;42.600;23.470;2022-07-11T04:52:07;93233.41;;;17.45;92.98
6038;BME280;3047;42.600;23.470;2022-07-11T04:54:33;93229.72;;;17.50;92.63
6038;BME280;3047;42.600;23.470;2022-07-11T04:57:00;93231.25;;;17.53;93.87
6038;BME280;3047;42.600;23.470;2022-07-11T04:59:27;93229.38;;;17.57;92.24
6038;BME280;3047;42.600;23.470;2022-07-11T05:01:54;93233.25;;;17.48;90.12
6038;BME280;3047;42.600;23.470;2022-07-11T05:04:20;93238.19;;;17.51;90.73
6038;BME280;3047;42.600;23.470;2022-07-11T05:06:49;93229.72;;;17.50;91.07
6038;BME280;3047;42.600;23.470;2022-07-11T05:09:16;93206.75;;;17.33;92.37
6038;BME280;3047;42.600;23.470;2022-07-11T05:11:44;93216.75;;;17.38;91.70
6038;BME280;3047;42.600;23.470;2022-07-11T05:14:10;93237.94;;;17.55;90.34
6038;BME280;3047;42.600;23.470;2022-07-11T05:16:37;93224.81;;;17.46;89.04
6038;BME280;3047;42.600;23.470;2022-07-11T05:19:04;93248.75;;;17.61;89.83
6038;BME280;3047;42.600;23.470;2022-07-11T05:21:31;93238.75;;;17.56;91.28
6038;BME280;3047;42.600;23.470;2022-07-11T05:23:59;93247.66;;;17.65;91.88
6038;BME280;3047;42.600;23.470;2022-07-11T05:26:26;93247.41;;;17.69;90.39
6038;BME280;3047;42.600;23.470;2022-07-11T05:28:53;93243.53;;;17.62;89.84
6038;BME280;3047;42.600;23.470;2022-07-11T05:31:19;93252.72;;;17.66;90.18
6038;BME280;3047;42.600;23.470;2022-07-11T05:33:46;93226.09;;;17.54;90.71
6038;BME280;3047;42.600;23.470;2022-07-11T05:36:13;93257.97;;;17.63;90.94
6038;BME280;3047;42.600;23.470;2022-07-11T05:38:39;93251.56;;;17.72;88.76
6038;BME280;3047;42.600;23.470;2022-07-11T05:41:08;93246.03;;;17.64;90.64
6038;BME280;3047;42.600;23.470;2022-07-11T05:43:35;93253.19;;;17.57;91.37
6038;BME280;3047;42.600;23.470;2022-07-11T05:46:04;93252.78;;;17.65;91.58
6038;BME280;3047;42.600;23.470;2022-07-11T05:48:31;93245.22;;;17.63;90.06
6038;BME280;3047;42.600;23.470;2022-07-11T05:50:57;93252.19;;;17.60;90.82
6038;BME280;3047;42.600;23.470;2022-07-11T05:53:24;93255.72;;;17.74;88.30
6038;BME280;3047;42.600;23.470;2022-07-11T05:55:51;93257.56;;;17.71;87.59
6038;BME280;3047;42.600;23.470;2022-07-11T05:58:19;93255.63;;;17.76;89.79
6038;BME280;3047;42.600;23.470;2022-07-11T06:00:46;93259.72;;;17.94;86.27
6038;BME280;3047;42.600;23.470;2022-07-11T06:03:13;93221.44;;;17.78;82.70
6038;BME280;3047;42.600;23.470;2022-07-11T06:05:40;93270.34;;;18.18;78.56
6038;BME280;3047;42.600;23.470;2022-07-11T06:08:06;93261.34;;;18.27;78.95
6038;BME280;3047;42.600;23.470;2022-07-11T06:10:50;93260.88;;;18.36;80.56
6038;BME280;3047;42.600;23.470;2022-07-11T06:13:19;93268.00;;;18.45;80.93
6038;BME280;3047;42.600;23.470;2022-07-11T06:15:46;93268.31;;;18.71;81.13
6038;BME280;3047;42.600;23.470;2022-07-11T06:18:13;93275.13;;;18.86;75.24
6038;BME280;3047;42.600;23.470;2022-07-11T06:20:40;93261.78;;;18.81;73.15
6038;BME280;3047;42.600;23.470;2022-07-11T06:23:06;93270.81;;;18.87;72.23
6038;BME280;3047;42.600;23.470;2022-07-11T06:25:33;93266.50;;;18.87;73.53
6038;BME280;3047;42.600;23.470;2022-07-11T06:28:00;93220.47;;;18.57;68.03
6038;BME280;3047;42.600;23.470;2022-07-11T06:30:28;93281.38;;;18.96;69.15
6038;BME280;3047;42.600;23.470;2022-07-11T06:32:56;93268.94;;;19.05;72.72
6038;BME280;3047;42.600;23.470;2022-07-11T06:35:23;93282.09;;;18.98;68.04
6038;BME280;3047;42.600;23.470;2022-07-11T06:37:50;93273.03;;;19.07;61.87
6038;BME280;3047;42.600;23.470;2022-07-11T06:40:16;93261.22;;;18.90;61.16
6038;BME280;3047;42.600;23.470;2022-07-11T06:42:44;93264.66;;;19.05;62.80
6038;BME280;3047;42.600;23.470;2022-07-11T06:45:11;93274.63;;;19.10;60.37
6038;BME280;3047;42.600;23.470;2022-07-11T06:47:39;93266.56;;;19.01;60.65
6038;BME280;3047;42.600;23.470;2022-07-11T06:50:06;93262.81;;;18.93;63.44
6038;BME280;3047;42.600;23.470;2022-07-11T06:52:33;93269.47;;;18.95;60.35
6038;BME280;3047;42.600;23.470;2022-07-11T06:55:00;93269.66;;;18.92;59.12
6038;BME280;3047;42.600;23.470;2022-07-11T06:57:27;93237.34;;;18.75;61.66
6038;BME280;3047;42.600;23.470;2022-07-11T06:59:54;93268.84;;;19.06;59.24
6038;BME280;3047;42.600;23.470;2022-07-11T07:02:20;93259.25;;;19.10;61.99
6038;BME280;3047;42.600;23.470;2022-07-11T07:04:53;93259.53;;;19.19;62.04
6038;BME280;3047;42.600;23.470;2022-07-11T07:07:19;93258.09;;;19.30;61.42
6038;BME280;3047;42.600;23.470;2022-07-11T07:09:46;93262.03;;;19.21;61.20
6038;BME280;3047;42.600;23.470;2022-07-11T07:12:13;93241.16;;;19.13;62.89
6038;BME280;3047;42.600;23.470;2022-07-11T07:14:40;93202.09;;;19.09;61.56
6038;BME280;3047;42.600;23.470;2022-07-11T07:17:07;93250.47;;;19.57;58.04
6038;BME280;3047;42.600;23.470;2022-07-11T07:19:34;93245.44;;;19.55;59.20
6038;BME280;3047;42.600;23.470;2022-07-11T07:22:03;93144.41;;;19.18;60.12
6038;BME280;3047;42.600;23.470;2022-07-11T07:24:31;93202.28;;;19.63;57.75
6038;BME280;3047;42.600;23.470;2022-07-11T07:26:57;93232.97;;;19.92;56.33
6038;BME280;3047;42.600;23.470;2022-07-11T07:29:24;93237.81;;;19.96;57.14
6038;BME280;3047;42.600;23.470;2022-07-11T07:31:52;93236.22;;;20.08;58.12
6038;BME280;3047;42.600;23.470;2022-07-11T07:34:19;93237.38;;;20.17;57.23
6038;BME280;3047;42.600;23.470;2022-07-11T07:36:45;93230.09;;;20.38;57.76
6038;BME280;3047;42.600;23.470;2022-07-11T07:39:13;93226.84;;;20.48;56.47
6038;BME280;3047;42.600;23.470;2022-07-11T07:41:40;93217.22;;;20.52;56.91
6038;BME280;3047;42.600;23.470;2022-07-11T07:44:07;93231.81;;;20.64;56.43
6038;BME280;3047;42.600;23.470;2022-07-11T07:46:34;93229.56;;;20.72;58.95
6038;BME280;3047;42.600;23.470;2022-07-11T07:49:00;93235.03;;;20.81;58.89
6038;BME280;3047;42.600;23.470;2022-07-11T07:51:28;93240.88;;;20.83;56.23
6038;BME280;3047;42.600;23.470;2022-07-11T07:53:55;93241.50;;;20.86;57.58
6038;BME280;3047;42.600;23.470;2022-07-11T07:56:23;93244.41;;;21.07;60.54
6038;BME280;3047;42.600;23.470;2022-07-11T07:58:50;93252.13;;;21.20;57.23
6038;BME280;3047;42.600;23.470;2022-07-11T08:01:17;93248.81;;;21.31;57.09
6038;BME280;3047;42.600;23.470;2022-07-11T08:04:03;93248.09;;;21.54;57.77
6038;BME280;3047;42.600;23.470;2022-07-11T08:06:30;93245.91;;;21.73;54.12
6038;BME280;3047;42.600;23.470;2022-07-11T08:08:57;93244.66;;;21.79;55.84
6038;BME280;3047;42.600;23.470;2022-07-11T08:11:25;93173.78;;;21.51;55.87
6038;BME280;3047;42.600;23.470;2022-07-11T08:13:53;93255.13;;;22.02;52.62
6038;BME280;3047;42.600;23.470;2022-07-11T08:16:20;93252.81;;;22.23;54.13
6038;BME280;3047;42.600;23.470;2022-07-11T08:18:47;93246.34;;;22.17;52.36
6038;BME280;3047;42.600;23.470;2022-07-11T08:21:14;93243.41;;;22.34;51.39
6038;BME280;3047;42.600;23.470;2022-07-11T08:23:40;93251.41;;;22.42;51.25
6038;BME280;3047;42.600;23.470;2022-07-11T08:26:07;93229.78;;;22.45;52.17
6038;BME280;3047;42.600;23.470;2022-07-11T08:28:35;93261.84;;;22.52;53.23
6038;BME280;3047;42.600;23.470;2022-07-11T08:31:02;93221.72;;;22.50;53.41
6038;BME280;3047;42.600;23.470;2022-07-11T08:33:29;93264.63;;;22.97;52.89
6038;BME280;3047;42.600;23.470;2022-07-11T08:35:56;93260.25;;;22.62;49.07
6038;BME280;3047;42.600;23.470;2022-07-11T08:38:22;93260.13;;;22.53;50.25
6038;BME280;3047;42.600;23.470;2022-07-11T08:40:49;93254.78;;;22.43;49.37
6038;BME280;3047;42.600;23.470;2022-07-11T08:43:21;93211.56;;;22.24;50.93
6038;BME280;3047;42.600;23.470;2022-07-11T08:45:50;93248.41;;;22.49;48.35
6038;BME280;3047;42.600;23.470;2022-07-11T08:48:19;93250.44;;;22.67;55.03
6038;BME280;3047;42.600;23.470;2022-07-11T08:50:46;93253.75;;;22.69;47.28
6038;BME280;3047;42.600;23.470;2022-07-11T08:53:13;93261.19;;;22.61;50.21
6038;BME280;3047;42.600;23.470;2022-07-11T08:55:40;93250.09;;;22.72;51.18
6038;BME280;3047;42.600;23.470;2022-07-11T08:58:07;93255.16;;;22.85;48.97
6038;BME280;3047;42.600;23.470;2022-07-11T09:00:34;93229.47;;;22.61;51.99
6038;BME280;3047;42.600;23.470;2022-07-11T09:03:03;93242.88;;;23.01;48.97
6038;BME280;3047;42.600;23.470;2022-07-11T09:05:31;93250.38;;;23.15;49.99
6038;BME280;3047;42.600;23.470;2022-07-11T09:07:58;93254.47;;;23.07;47.50
6038;BME280;3047;42.600;23.470;2022-07-11T09:10:25;93252.47;;;23.10;48.76
6038;BME280;3047;42.600;23.470;2022-07-11T09:13:01;93237.00;;;22.99;48.10
6038;BME280;3047;42.600;23.470;2022-07-11T09:15:36;93259.31;;;23.34;50.36
6038;BME280;3047;42.600;23.470;2022-07-11T09:18:07;93258.41;;;23.46;47.93
6038;BME280;3047;42.600;23.470;2022-07-11T09:20:54;93258.19;;;23.72;48.50
6038;BME280;3047;42.600;23.470;2022-07-11T09:23:40;93267.09;;;23.67;43.67
6038;BME280;3047;42.600;23.470;2022-07-11T09:26:24;93263.81;;;23.88;47.62
6038;BME280;3047;42.600;23.470;2022-07-11T09:29:04;93254.06;;;23.47;43.00
6038;BME280;3047;42.600;23.470;2022-07-11T09:31:33;93269.81;;;23.66;45.39
6038;BME280;3047;42.600;23.470;2022-07-11T09:34:03;93263.44;;;23.59;43.71
6038;BME280;3047;42.600;23.470;2022-07-11T09:36:39;93274.56;;;23.59;44.28
6038;BME280;3047;42.600;23.470;2022-07-11T09:39:06;93269.09;;;23.86;47.38
6038;BME280;3047;42.600;23.470;2022-07-11T09:41:34;93253.94;;;23.82;45.40
6038;BME280;3047;42.600;23.470;2022-07-11T09:44:15;93265.31;;;24.02;44.80
6038;BME280;3047;42.600;23.470;2022-07-11T09:46:44;93273.19;;;24.00;45.60
6038;BME280;3047;42.600;23.470;2022-07-11T09:49:13;93270.81;;;24.08;46.12
6038;BME280;3047;42.600;23.470;2022-07-11T09:51:42;93270.31;;;24.26;45.42
6038;BME280;3047;42.600;23.470;2022-07-11T09:54:10;93272.34;;;24.11;44.52
6038;BME280;3047;42.600;23.470;2022-07-11T09:56:41;93243.41;;;23.74;45.16
6038;BME280;3047;42.600;23.470;2022-07-11T09:59:10;93275.50;;;24.14;45.18
6038;BME280;3047;42.600;23.470;2022-07-11T10:01:38;93273.19;;;24.11;43.46
6038;BME280;3047;42.600;23.470;2022-07-11T10:04:07;93254.22;;;23.79;45.89
6038;BME280;3047;42.600;23.470;2022-07-11T10:06:37;93241.91;;;23.82;45.46
6038;BME280;3047;42.600;23.470;2022-07-11T10:09:05;93266.50;;;23.98;44.87
6038;BME280;3047;42.600;23.470;2022-07-11T10:11:33;93265.88;;;23.38;44.68
6038;BME280;3047;42.600;23.470;2022-07-11T10:14:01;93279.13;;;23.44;45.38
6038;BME280;3047;42.600;23.470;2022-07-11T10:16:40;93242.53;;;23.28;42.76
6038;BME280;3047;42.600;23.470;2022-07-11T10:19:29;93283.63;;;23.76;43.69
6038;BME280;3047;42.600;23.470;2022-07-11T10:22:09;93248.06;;;23.57;43.66
6038;BME280;3047;42.600;23.470;2022-07-11T10:24:47;93276.03;;;23.75;43.24
6038;BME280;3047;42.600;23.470;2022-07-11T10:27:24;93254.63;;;23.61;43.52
6038;BME280;3047;42.600;23.470;2022-07-11T10:29:53;93281.13;;;23.52;45.20
6038;BME280;3047;42.600;23.470;2022-07-11T10:32:20;93221.47;;;22.88;44.85
6038;BME280;3047;42.600;23.470;2022-07-11T10:35:05;93265.16;;;23.36;47.70
6038;BME280;3047;42.600;23.470;2022-07-11T10:37:46;93269.69;;;23.21;46.08
6038;BME280;3047;42.600;23.470;2022-07-11T10:40:14;93275.47;;;23.36;48.86
6038;BME280;3047;42.600;23.470;2022-07-11T10:42:42;93242.19;;;23.22;48.19
6038;BME280;3047;42.600;23.470;2022-07-11T10:45:09;93278.47;;;23.76;44.96
6038;BME280;3047;42.600;23.470;2022-07-11T10:47:41;93293.59;;;24.03;45.14
6038;BME280;3047;42.600;23.470;2022-07-11T10:50:16;93283.50;;;24.00;46.44
6038;BME280;3047;42.600;23.470;2022-07-11T10:52:49;93294.28;;;23.94;44.79
6038;BME280;3047;42.600;23.470;2022-07-11T10:55:32;93282.31;;;24.04;42.44
6038;BME280;3047;42.600;23.470;2022-07-11T10:58:05;93282.78;;;24.09;45.56
6038;BME280;3047;42.600;23.470;2022-07-11T11:00:33;93283.50;;;24.23;44.13
6038;BME280;3047;42.600;23.470;2022-07-11T11:03:02;93229.31;;;23.89;42.97
6038;BME280;3047;42.600;23.470;2022-07-11T11:05:44;93278.66;;;24.29;43.59
6038;BME280;3047;42.600;23.470;2022-07-11T11:08:45;93289.13;;;24.39;44.75
6038;BME280;3047;42.600;23.470;2022-07-11T11:11:35;93300.25;;;24.28;43.77
6038;BME280;3047;42.600;23.470;2022-07-11T11:14:21;93293.31;;;24.29;43.40
6038;BME280;3047;42.600;23.470;2022-07-11T11:16:48;93253.94;;;24.15;44.04
6038;BME280;3047;42.600;23.470;2022-07-11T11:19:50;93287.47;;;24.38;43.12
6038;BME280;3047;42.600;23.470;2022-07-11T11:22:18;93293.66;;;24.47;41.45
6038;BME280;3047;42.600;23.470;2022-07-11T11:24:47;93298.38;;;24.19;43.04
6038;BME280;3047;42.600;23.470;2022-07-11T11:27:18;93293.09;;;24.21;44.35
6038;BME280;3047;42.600;23.470;2022-07-11T11:29:48;93257.78;;;24.10;42.23
6038;BME280;3047;42.600;23.470;2022-07-11T11:32:15;93287.34;;;24.28;44.40
6038;BME280;3047;42.600;23.470;2022-07-11T11:34:43;93291.44;;;24.31;43.32
6038;BME280;3047;42.600;23.470;2022-07-11T11:37:10;93287.56;;;24.25;46.18
6038;BME280;3047;42.600;23.470;2022-07-11T11:39:38;93290.75;;;24.17;42.05
6038;BME280;3047;42.600;23.470;2022-07-11T11:42:13;93249.75;;;23.92;42.57
6038;BME280;3047;42.600;23.470;2022-07-11T11:44:51;93277.63;;;24.21;43.90
6038;BME280;3047;42.600;23.470;2022-07-11T11:47:19;93294.50;;;24.02;43.38
6038;BME280;3047;42.600;23.470;2022-07-11T11:49:46;93274.47;;;23.72;43.87
6038;BME280;3047;42.600;23.470;2022-07-11T11:52:14;93301.09;;;23.95;44.26
6038;BME280;3047;42.600;23.470;2022-07-11T11:54:41;93285.28;;;24.00;42.02
6038;BME280;3047;42.600;23.470;2022-07-11T11:57:12;93285.75;;;23.82;44.34
6038;BME280;3047;42.600;23.470;2022-07-11T11:59:40;93284.66;;;23.74;44.23
6038;BME280;3047;42.600;23.470;2022-07-11T12:02:08;93285.63;;;23.73;44.07
6038;BME280;3047;42.600;23.470;2022-07-11T12:04:36;93286.78;;;23.68;45.61
6038;BME280;3047;42.600;23.470;2022-07-11T12:07:04;93290.16;;;23.58;43.73
6038;BME280;3047;42.600;23.470;2022-07-11T12:09:31;93286.16;;;23.42;42.28
6038;BME280;3047;42.600;23.470;2022-07-11T12:12:18;93286.59;;;23.36;44.00
6038;BME280;3047;42.600;23.470;2022-07-11T12:15:04;93269.38;;;23.26;45.24
6038;BME280;3047;42.600;23.470;2022-07-11T12:17:32;93289.78;;;23.40;46.54
6038;BME280;3047;42.600;23.470;2022-07-11T12:19:59;93261.03;;;23.11;44.98
6038;BME280;3047;42.600;23.470;2022-07-11T12:22:26;93256.31;;;23.05;44.39
6038;BME280;3047;42.600;23.470;2022-07-11T12:24:54;93260.44;;;22.83;46.33
6038;BME280;3047;42.600;23.470;2022-07-11T12:27:24;93274.00;;;22.98;46.54
6038;BME280;3047;42.600;23.470;2022-07-11T12:29:52;93279.03;;;23.00;45.14
6038;BME280;3047;42.600;23.470;2022-07-11T12:32:20;93275.56;;;22.88;45.07
6038;BME280;3047;42.600;23.470;2022-07-11T12:34:48;93268.66;;;22.88;45.32
6038;BME280;3047;42.600;23.470;2022-07-11T12:37:17;93278.00;;;22.78;47.55
6038;BME280;3047;42.600;23.470;2022-07-11T12:39:48;93283.09;;;22.67;46.63
6038;BME280;3047;42.600;23.470;2022-07-11T12:42:26;93278.97;;;22.64;46.39
6038;BME280;3047;42.600;23.470;2022-07-11T12:44:57;93267.00;;;22.52;46.23
6038;BME280;3047;42.600;23.470;2022-07-11T12:47:33;93272.09;;;22.65;47.84
6038;BME280;3047;42.600;23.470;2022-07-11T12:50:10;93266.16;;;22.52;46.44
6038;BME280;3047;42.600;23.470;2022-07-11T12:52:38;93236.81;;;22.30;47.85
6038;BME280;3047;42.600;23.470;2022-07-11T12:55:07;93272.38;;;22.49;48.30
6038;BME280;3047;42.600;23.470;2022-07-11T12:57:38;93275.78;;;22.50;48.58
6038;BME280;3047;42.600;23.470;2022-07-11T13:00:12;93269.75;;;22.62;46.34
6038;BME280;3047;42.600;23.470;2022-07-11T13:02:47;93277.00;;;22.44;46.12
6038;BME280;3047;42.600;23.470;2022-07-11T13:05:14;93288.66;;;22.50;49.54
6038;BME280;3047;42.600;23.470;2022-07-11T13:07:42;93275.38;;;22.43;47.31
6038;BME280;3047;42.600;23.470;2022-07-11T13:10:27;93282.53;;;22.27;46.23
6038;BME280;3047;42.600;23.470;2022-07-11T13:13:16;93253.28;;;21.91;46.76
6038;BME280;3047;42.600;23.470;2022-07-11T13:15:43;93281.66;;;22.02;48.57
6038;BME280;3047;42.600;23.470;2022-07-11T13:18:10;93282.06;;;22.09;47.68
6038;BME280;3047;42.600;23.470;2022-07-11T13:20:37;93275.88;;;22.11;47.83